Corky — WDC3366 — position and weather

sailwx.info

Track history (hours):
 
Tides and Currents Weather Stations Pressure Air Temp Water Temp Dewpoint Dewpoint Depression Visibility Wind Speed Wind Dir Waves Ship Positions

Corky

Owner: Gulf South Marine Transportation, Inc., New Orleans, LA. More information available from US FCC via Universal Licensing System and Coast Guard Vessel Documentation Center.

Last reported at 2014-Dec-18 12:32 UTC. Time now 2014-Dec-18 20:17 UTC.
Position N 29°57' W 090°02'.

Length 18 m; draft 3.3 m.

Type: Tow > 200 m length. MMSI: 367006780.

Date/timePositionNaut miles runAvg speedWind from/ knotsBaromVisibWave heightAir tempDewpointWater temp
2014-Dec-18 12:32N 29°57' W 090°02'0 0.0
2014-Dec-18 11:32N 29°57' W 090°02'0 0.0
2014-Dec-18 10:32N 29°57' W 090°02'0 0.0
2014-Dec-18 09:32N 29°57' W 090°02'0 0.1
2014-Dec-18 08:32N 29°57' W 090°02'2 2.2
2014-Dec-18 07:33N 29°56' W 089°60'3 2.3
2014-Dec-18 06:26N 29°55' W 089°57'0 0.0
2014-Dec-18 01:32N 29°55' W 089°57'6 0.1
2014-Dec-15 23:18N 30°01' W 089°54'3 0.3
2014-Dec-15 14:28N 30°00' W 089°57'3 3.2
2014-Dec-15 13:29N 29°60' W 090°01'  
2014-Dec-13 07:18N 30°02' W 089°50'4 4.1
2014-Dec-13 06:26N 30°01' W 089°54'1 0.6
2014-Dec-13 05:14N 30°02' W 089°54'3 1.6
2014-Dec-13 03:26N 30°00' W 089°57'3 3.0
2014-Dec-13 02:29N 29°60' W 090°01'0 0.1
2014-Dec-13 01:33N 29°60' W 090°00'2 2.3
2014-Dec-13 00:32N 29°58' W 090°02'0 0.4
2014-Dec-12 23:28N 29°57' W 090°01'0 0.0
2014-Dec-12 22:31N 29°57' W 090°01'0 0.0
2014-Dec-12 21:33N 29°57' W 090°01'0 0.0
2014-Dec-12 20:23N 29°57' W 090°01'1 0.9
2014-Dec-12 19:28N 29°57' W 090°01'1 1.2
2014-Dec-12 18:33N 29°56' W 089°60'0 0.0
2014-Dec-12 17:33N 29°56' W 089°60'0 0.0
2014-Dec-12 16:31N 29°56' W 089°60'0 0.0
2014-Dec-12 15:13N 29°56' W 089°60'0 0.0
2014-Dec-12 14:33N 29°56' W 089°60'0 0.0
2014-Dec-12 12:07N 29°56' W 089°60'0 0.0
2014-Dec-12 11:23N 29°56' W 089°60'0 0.0
2014-Dec-12 10:21N 29°56' W 089°60'0 0.0
2014-Dec-12 09:32N 29°56' W 089°60'0 0.0
2014-Dec-11 13:04N 29°56' W 089°60'0 0.0
2014-Dec-11 12:28N 29°56' W 089°60'0 0.0
2014-Dec-11 11:24N 29°56' W 089°60'0 0.0
2014-Dec-11 10:27N 29°56' W 089°60'0 0.0
2014-Dec-11 09:27N 29°56' W 089°60'0 0.0
2014-Dec-11 08:32N 29°56' W 089°60'0 0.3
2014-Dec-11 07:33N 29°56' W 089°60'2 2.1
2014-Dec-11 06:32N 29°57' W 090°02'4 3.7
2014-Dec-11 05:28N 29°55' W 090°05'1 1.5
2014-Dec-11 04:33N 29°54' W 090°07'1 1.4
2014-Dec-11 03:30N 29°55' W 090°08'0 0.0
2014-Dec-10 04:32N 29°55' W 090°08'4 4.2
2014-Dec-10 03:32N 29°57' W 090°04'1 1.2
2014-Dec-10 02:18N 29°58' W 090°02'1 1.0
2014-Dec-10 01:33N 29°58' W 090°02'1 0.6
2014-Dec-10 00:33N 29°59' W 090°01'2 0.3
2014-Dec-09 19:23N 29°60' W 090°00'3 4.2
2014-Dec-09 18:33N 30°00' W 089°56'2 0.3
2014-Dec-09 11:13N 30°01' W 089°55'0 0.0
2014-Dec-09 10:11N 30°01' W 089°55'0 0.0
2014-Dec-09 08:23N 30°01' W 089°55'  
Track history (hours):
 
Tides and Currents Weather Stations Pressure Air Temp Water Temp Dewpoint Dewpoint Depression Visibility Wind Speed Wind Dir Waves Ship Positions

Corky

Owner: Gulf South Marine Transportation, Inc., New Orleans, LA. More information available from US FCC via Universal Licensing System and Coast Guard Vessel Documentation Center.

Last reported at 2014-Dec-18 12:32 UTC. Time now 2014-Dec-18 20:17 UTC.
Position N 29°57' W 090°02'.

Length 18 m; draft 3.3 m.

Type: Tow > 200 m length. MMSI: 367006780.

Date/timePositionNaut miles runAvg speedWind from/ knotsBaromVisibWave heightAir tempDewpointWater temp
2014-Dec-18 12:32N 29°57' W 090°02'0 0.0
2014-Dec-18 11:32N 29°57' W 090°02'0 0.0
2014-Dec-18 10:32N 29°57' W 090°02'0 0.0
2014-Dec-18 09:32N 29°57' W 090°02'0 0.1
2014-Dec-18 08:32N 29°57' W 090°02'2 2.2
2014-Dec-18 07:33N 29°56' W 089°60'3 2.3
2014-Dec-18 06:26N 29°55' W 089°57'0 0.0
2014-Dec-18 01:32N 29°55' W 089°57'6 0.1
2014-Dec-15 23:18N 30°01' W 089°54'3 0.3
2014-Dec-15 14:28N 30°00' W 089°57'3 3.2
2014-Dec-15 13:29N 29°60' W 090°01'  
2014-Dec-13 07:18N 30°02' W 089°50'4 4.1
2014-Dec-13 06:26N 30°01' W 089°54'1 0.6
2014-Dec-13 05:14N 30°02' W 089°54'3 1.6
2014-Dec-13 03:26N 30°00' W 089°57'3 3.0
2014-Dec-13 02:29N 29°60' W 090°01'0 0.1
2014-Dec-13 01:33N 29°60' W 090°00'2 2.3
2014-Dec-13 00:32N 29°58' W 090°02'0 0.4
2014-Dec-12 23:28N 29°57' W 090°01'0 0.0
2014-Dec-12 22:31N 29°57' W 090°01'0 0.0
2014-Dec-12 21:33N 29°57' W 090°01'0 0.0
2014-Dec-12 20:23N 29°57' W 090°01'1 0.9
2014-Dec-12 19:28N 29°57' W 090°01'1 1.2
2014-Dec-12 18:33N 29°56' W 089°60'0 0.0
2014-Dec-12 17:33N 29°56' W 089°60'0 0.0
2014-Dec-12 16:31N 29°56' W 089°60'0 0.0
2014-Dec-12 15:13N 29°56' W 089°60'0 0.0
2014-Dec-12 14:33N 29°56' W 089°60'0 0.0
2014-Dec-12 12:07N 29°56' W 089°60'0 0.0
2014-Dec-12 11:23N 29°56' W 089°60'0 0.0
2014-Dec-12 10:21N 29°56' W 089°60'0 0.0
2014-Dec-12 09:32N 29°56' W 089°60'0 0.0
2014-Dec-11 13:04N 29°56' W 089°60'0 0.0
2014-Dec-11 12:28N 29°56' W 089°60'0 0.0
2014-Dec-11 11:24N 29°56' W 089°60'0 0.0
2014-Dec-11 10:27N 29°56' W 089°60'0 0.0
2014-Dec-11 09:27N 29°56' W 089°60'0 0.0
2014-Dec-11 08:32N 29°56' W 089°60'0 0.3
2014-Dec-11 07:33N 29°56' W 089°60'2 2.1
2014-Dec-11 06:32N 29°57' W 090°02'4 3.7
2014-Dec-11 05:28N 29°55' W 090°05'1 1.5
2014-Dec-11 04:33N 29°54' W 090°07'1 1.4
2014-Dec-11 03:30N 29°55' W 090°08'0 0.0
2014-Dec-10 04:32N 29°55' W 090°08'4 4.2
2014-Dec-10 03:32N 29°57' W 090°04'1 1.2
2014-Dec-10 02:18N 29°58' W 090°02'1 1.0
2014-Dec-10 01:33N 29°58' W 090°02'1 0.6
2014-Dec-10 00:33N 29°59' W 090°01'2 0.3
2014-Dec-09 19:23N 29°60' W 090°00'3 4.2
2014-Dec-09 18:33N 30°00' W 089°56'2 0.3
2014-Dec-09 11:13N 30°01' W 089°55'0 0.0
2014-Dec-09 10:11N 30°01' W 089°55'0 0.0
2014-Dec-09 08:23N 30°01' W 089°55'  

Dump ship's entire track history